ISABELLA DAM (ISB)

Elevation: 2635' · KERN R basin · Operator: US Army Corps of Engineers

Provisional data, subject to change.
Query executed Wednesday at 7:52:50   clock

Select a sensor type for a plot of data.
Note: Reservoir Flows are daily averages.

Earlier

Date RES ELE    STORAGE    RES CHG    TOC STO    ABV TOC    OUTFLOW    INFLOW    FNF    PPT INC    PPTINC4    TEMP MN    TEMP MX    WINDLEN    EVP PAN   
 FEET   AF   AF   AF   AF   CFS   CFS   CFS   INCHES   INCHES   DEG F   DEG F   MILES   INCHES  
12/29/2014 2529.58 44922 -71 170000 -125078 185 160 160 0.00 0.00 1 13 203 0.12
12/30/2014 2529.57 44898 -24 170000 -125102 185 179 179 0.00 0.00 -1 7 208 0.07
12/31/2014 2529.55 44851 -47 170000 r -125149 r -- -- 160 -- 0.00 -- -- -- --
01/01/2015 2529.51 44757 -94 170000 -125243 169 127 127 0.03 0.00 -5 12 86 0.07
01/02/2015 2529.48 44687 -70 170000 -125313 169 140 140 0.00 0.00 -4 13 78 0.07
01/03/2015 2529.46 44640 -47 170000 -125360 170 153 153 0.00 0.00 -3 15 77 0.08
01/04/2015 2529.46 44640 0 170000 -125360 169 174 174 0.00 0.00 -2 14 59 0.06
01/05/2015 2529.46 44640 0 170000 -125360 168 176 176 0.00 0.00 -0 19 112 0.10
01/06/2015 2529.45 44616 -24 170000 -125384 169 171 171 0.00 0.00 5 23 227 0.18
01/07/2015 2529.43 44570 -46 170000 -125430 169 156 156 0.00 0.00 4 26 104 0.13
01/08/2015 2529.42 44546 -24 170000 -125454 166 161 161 0.00 0.00 4 22 69 0.09
01/09/2015 2529.42 44546 0 170000 -125454 160 165 165 0.00 0.00 7 18 68 0.07
01/10/2015 2529.43 44570 24 170000 -125430 167 185 185 0.00 0.00 5 18 89 0.08
01/11/2015 2529.54 44828 258 170000 -125172 163 296 296 1.29 0.06 6 11 119 0.03
01/12/2015 2529.57 44898 70 170000 -125102 153 193 193 0.00 1.29 4 13 106 0.06
01/13/2015 2529.58 44922 24 -- -- 160 178 178 0.02 0.00 2 16 76 0.07
01/14/2015 2529.58 44922 0 -- -- 172 178 178 0.00 0.00 1 18 60 0.08
01/15/2015 2529.57 44898 -24 -- -- 173 169 169 0.00 0.00 1 18 110 0.10
01/16/2015 2529.54 44828 -70 170000 -- 180 152 152 0.00 0.00 1 18 108 0.10
01/17/2015 2529.52 44781 -47 170000 -- 172 155 155 0.00 0.00 2 19 74 0.09
01/18/2015 2529.52 44781 0 170000 -- 159 168 168 0.01 0.00 5 21 106 0.11
01/19/2015 2529.52 44781 0 170000 -- 155 162 162 0.00 0.00 3 18 95 0.09
01/20/2015 2529.53 44804 23 170000 -125196 150 166 166 0.00 0.00 4 13 97 0.06
01/21/2015 2529.53 44804 0 170000 -125196 150 157 157 0.00 0.00 1 18 93 0.09
01/22/2015 2529.54 44828 24 170000 -125172 149 169 169 0.00 0.00 2 17 109 0.10
01/23/2015 2529.54 44828 0 170000 -125172 148 156 157 0.00 0.00 1 19 98 0.11
01/24/2015 2529.53 44804 -24 170000 -125196 151 152 -- 0.00 0.00 2 24 139 0.16
01/25/2015 2529.53 44804 0 170000 -125196 151 162 -- 0.01 0.00 3 26 89 0.14
01/26/2015 2529.54 44828 24 170000 -125172 151 173 -- 0.07 0.00 7 21 178 0.13
01/27/2015 2529.55 44851 23 170000 -125149 -- -- -- -- 0.07 -- -- -- --
01/28/2015 -- -- -- -- -- -- -- -- -- 0.07 -- -- -- --

Later | Latest

Warning! This data is preliminary and subject to revision.

Show ISB Map | Plot ISB Data | 1 Month ISB Data | Real-Time ISB Data | ISB Info